Аэропорт: Курск-Восточный . Курск

ICAO: UUOK

METAR:
2019-09-21 16:00:00
UUOK 211600Z 30004MPS CAVOK 07/00 Q1016 R30/CLRD65 NOSIG RMK QFE743/0991
METAR:
Информация по данной станции не доступна